sensor_id;sensor_type;location;lat;lon;timestamp;P1;durP1;ratioP1;P2;durP2;ratioP2
17504;SDS011;8870;50.950;11.762;2023-03-26T00:04:37;1.50;;;0.50;;
17504;SDS011;8870;50.950;11.762;2023-03-26T00:10:08;1.13;;;0.47;;
17504;SDS011;8870;50.950;11.762;2023-03-26T00:15:32;1.08;;;0.50;;
17504;SDS011;8870;50.950;11.762;2023-03-26T00:21:05;1.48;;;0.60;;
17504;SDS011;8870;50.950;11.762;2023-03-26T00:26:24;1.38;;;0.60;;
17504;SDS011;8870;50.950;11.762;2023-03-26T00:31:58;1.77;;;0.60;;
17504;SDS011;8870;50.950;11.762;2023-03-26T00:37:17;1.85;;;0.45;;
17504;SDS011;8870;50.950;11.762;2023-03-26T00:42:48;1.65;;;0.60;;
17504;SDS011;8870;50.950;11.762;2023-03-26T00:48:08;2.95;;;0.70;;
17504;SDS011;8870;50.950;11.762;2023-03-26T00:53:56;1.27;;;0.40;;
17504;SDS011;8870;50.950;11.762;2023-03-26T00:59:29;1.52;;;0.60;;
17504;SDS011;8870;50.950;11.762;2023-03-26T01:04:53;2.60;;;0.57;;
17504;SDS011;8870;50.950;11.762;2023-03-26T01:10:28;2.10;;;0.68;;
17504;SDS011;8870;50.950;11.762;2023-03-26T01:15:52;1.27;;;0.60;;
17504;SDS011;8870;50.950;11.762;2023-03-26T01:21:26;1.95;;;0.70;;
17504;SDS011;8870;50.950;11.762;2023-03-26T01:26:56;2.85;;;0.80;;
17504;SDS011;8870;50.950;11.762;2023-03-26T01:32:42;2.15;;;0.82;;
17504;SDS011;8870;50.950;11.762;2023-03-26T01:38:18;3.85;;;1.00;;
17504;SDS011;8870;50.950;11.762;2023-03-26T01:43:59;1.63;;;0.70;;
17504;SDS011;8870;50.950;11.762;2023-03-26T01:49:25;3.50;;;1.00;;
17504;SDS011;8870;50.950;11.762;2023-03-26T01:54:57;1.95;;;0.73;;
17504;SDS011;8870;50.950;11.762;2023-03-26T02:00:23;2.53;;;0.57;;
17504;SDS011;8870;50.950;11.762;2023-03-26T02:05:59;2.13;;;0.63;;
17504;SDS011;8870;50.950;11.762;2023-03-26T02:11:25;3.05;;;0.77;;
17504;SDS011;8870;50.950;11.762;2023-03-26T02:16:59;1.65;;;0.63;;
17504;SDS011;8870;50.950;11.762;2023-03-26T02:22:18;2.80;;;0.70;;
17504;SDS011;8870;50.950;11.762;2023-03-26T02:27:50;3.30;;;0.77;;
17504;SDS011;8870;50.950;11.762;2023-03-26T02:33:13;2.95;;;0.70;;
17504;SDS011;8870;50.950;11.762;2023-03-26T02:38:44;1.88;;;0.80;;
17504;SDS011;8870;50.950;11.762;2023-03-26T02:44:05;2.75;;;0.60;;
17504;SDS011;8870;50.950;11.762;2023-03-26T02:49:42;3.30;;;0.95;;
17504;SDS011;8870;50.950;11.762;2023-03-26T02:55:20;2.35;;;0.85;;
17504;SDS011;8870;50.950;11.762;2023-03-26T03:00:51;2.60;;;0.93;;
17504;SDS011;8870;50.950;11.762;2023-03-26T03:06:23;3.00;;;0.80;;
17504;SDS011;8870;50.950;11.762;2023-03-26T03:11:54;1.92;;;0.85;;
17504;SDS011;8870;50.950;11.762;2023-03-26T03:17:12;2.60;;;0.90;;
17504;SDS011;8870;50.950;11.762;2023-03-26T03:22:46;2.60;;;0.98;;
17504;SDS011;8870;50.950;11.762;2023-03-26T03:28:06;3.22;;;1.00;;
17504;SDS011;8870;50.950;11.762;2023-03-26T03:33:39;2.80;;;0.88;;
17504;SDS011;8870;50.950;11.762;2023-03-26T03:39:02;4.45;;;1.02;;
17504;SDS011;8870;50.950;11.762;2023-03-26T03:44:33;4.10;;;0.90;;
17504;SDS011;8870;50.950;11.762;2023-03-26T03:50:11;3.60;;;1.10;;
17504;SDS011;8870;50.950;11.762;2023-03-26T03:56:07;3.47;;;0.90;;
17504;SDS011;8870;50.950;11.762;2023-03-26T04:01:53;3.03;;;1.00;;
17504;SDS011;8870;50.950;11.762;2023-03-26T04:07:32;2.80;;;1.00;;
17504;SDS011;8870;50.950;11.762;2023-03-26T04:13:13;2.53;;;0.90;;
17504;SDS011;8870;50.950;11.762;2023-03-26T04:18:56;3.90;;;1.02;;
17504;SDS011;8870;50.950;11.762;2023-03-26T04:24:17;4.80;;;1.08;;
17504;SDS011;8870;50.950;11.762;2023-03-26T04:29:53;3.65;;;1.02;;
17504;SDS011;8870;50.950;11.762;2023-03-26T04:35:12;4.50;;;1.00;;
17504;SDS011;8870;50.950;11.762;2023-03-26T04:40:47;3.13;;;0.88;;
17504;SDS011;8870;50.950;11.762;2023-03-26T04:46:21;2.42;;;0.88;;
17504;SDS011;8870;50.950;11.762;2023-03-26T04:52:00;3.65;;;0.90;;
17504;SDS011;8870;50.950;11.762;2023-03-26T04:57:41;2.55;;;0.90;;
17504;SDS011;8870;50.950;11.762;2023-03-26T05:03:36;4.38;;;1.15;;
17504;SDS011;8870;50.950;11.762;2023-03-26T05:08:56;4.35;;;1.05;;
17504;SDS011;8870;50.950;11.762;2023-03-26T05:14:47;4.95;;;1.10;;
17504;SDS011;8870;50.950;11.762;2023-03-26T05:20:44;5.10;;;1.17;;
17504;SDS011;8870;50.950;11.762;2023-03-26T05:26:19;4.30;;;1.17;;
17504;SDS011;8870;50.950;11.762;2023-03-26T05:31:37;3.72;;;1.10;;
17504;SDS011;8870;50.950;11.762;2023-03-26T05:37:12;3.00;;;1.10;;
17504;SDS011;8870;50.950;11.762;2023-03-26T05:42:39;3.30;;;1.23;;
17504;SDS011;8870;50.950;11.762;2023-03-26T05:48:14;4.22;;;1.30;;
17504;SDS011;8870;50.950;11.762;2023-03-26T05:53:42;5.15;;;1.10;;
17504;SDS011;8870;50.950;11.762;2023-03-26T06:05:19;3.33;;;0.90;;
17504;SDS011;8870;50.950;11.762;2023-03-26T06:11:03;3.38;;;0.90;;
17504;SDS011;8870;50.950;11.762;2023-03-26T06:16:22;5.22;;;1.27;;
17504;SDS011;8870;50.950;11.762;2023-03-26T06:22:01;6.10;;;1.23;;
17504;SDS011;8870;50.950;11.762;2023-03-26T06:27:45;4.30;;;1.20;;
17504;SDS011;8870;50.950;11.762;2023-03-26T06:33:45;4.05;;;1.23;;
17504;SDS011;8870;50.950;11.762;2023-03-26T06:39:03;3.92;;;1.40;;
17504;SDS011;8870;50.950;11.762;2023-03-26T06:45:00;4.78;;;1.58;;
17504;SDS011;8870;50.950;11.762;2023-03-26T06:51:03;6.63;;;2.05;;
17504;SDS011;8870;50.950;11.762;2023-03-26T06:56:48;6.15;;;2.25;;
17504;SDS011;8870;50.950;11.762;2023-03-26T07:02:27;5.63;;;2.40;;
17504;SDS011;8870;50.950;11.762;2023-03-26T07:08:17;5.63;;;2.05;;
17504;SDS011;8870;50.950;11.762;2023-03-26T07:13:54;6.32;;;1.95;;
17504;SDS011;8870;50.950;11.762;2023-03-26T07:19:46;5.72;;;1.73;;
17504;SDS011;8870;50.950;11.762;2023-03-26T07:25:07;7.35;;;1.58;;
17504;SDS011;8870;50.950;11.762;2023-03-26T07:30:49;4.45;;;1.30;;
17504;SDS011;8870;50.950;11.762;2023-03-26T07:36:42;7.05;;;1.60;;
17504;SDS011;8870;50.950;11.762;2023-03-26T07:42:54;6.07;;;1.60;;
17504;SDS011;8870;50.950;11.762;2023-03-26T07:48:38;4.32;;;1.30;;
17504;SDS011;8870;50.950;11.762;2023-03-26T07:54:21;4.07;;;1.30;;
17504;SDS011;8870;50.950;11.762;2023-03-26T08:00:12;6.60;;;1.42;;
17504;SDS011;8870;50.950;11.762;2023-03-26T08:11:30;6.28;;;1.50;;
17504;SDS011;8870;50.950;11.762;2023-03-26T08:16:57;5.78;;;1.52;;
17504;SDS011;8870;50.950;11.762;2023-03-26T08:22:37;5.80;;;1.58;;
17504;SDS011;8870;50.950;11.762;2023-03-26T08:28:07;4.55;;;1.33;;
17504;SDS011;8870;50.950;11.762;2023-03-26T08:33:33;2.72;;;1.02;;
17504;SDS011;8870;50.950;11.762;2023-03-26T08:39:05;3.25;;;1.20;;
17504;SDS011;8870;50.950;11.762;2023-03-26T08:50:35;6.43;;;1.48;;
17504;SDS011;8870;50.950;11.762;2023-03-26T08:56:28;5.60;;;1.38;;
17504;SDS011;8870;50.950;11.762;2023-03-26T09:14:21;5.13;;;1.38;;
17504;SDS011;8870;50.950;11.762;2023-03-26T09:20:27;4.88;;;1.30;;
17504;SDS011;8870;50.950;11.762;2023-03-26T09:26:03;4.63;;;1.20;;
17504;SDS011;8870;50.950;11.762;2023-03-26T09:32:05;3.30;;;1.30;;
17504;SDS011;8870;50.950;11.762;2023-03-26T09:37:56;6.20;;;1.30;;
17504;SDS011;8870;50.950;11.762;2023-03-26T09:43:39;5.40;;;1.40;;
17504;SDS011;8870;50.950;11.762;2023-03-26T09:49:13;4.22;;;1.20;;
17504;SDS011;8870;50.950;11.762;2023-03-26T09:54:57;5.05;;;1.30;;
17504;SDS011;8870;50.950;11.762;2023-03-26T10:00:38;4.57;;;1.38;;
17504;SDS011;8870;50.950;11.762;2023-03-26T10:06:14;4.40;;;1.40;;
17504;SDS011;8870;50.950;11.762;2023-03-26T10:12:00;5.93;;;1.42;;
17504;SDS011;8870;50.950;11.762;2023-03-26T10:17:37;3.90;;;1.00;;
17504;SDS011;8870;50.950;11.762;2023-03-26T10:23:51;4.40;;;1.20;;
17504;SDS011;8870;50.950;11.762;2023-03-26T10:29:46;3.88;;;1.17;;
17504;SDS011;8870;50.950;11.762;2023-03-26T10:35:21;5.63;;;1.45;;
17504;SDS011;8870;50.950;11.762;2023-03-26T10:41:07;3.50;;;1.25;;
17504;SDS011;8870;50.950;11.762;2023-03-26T10:46:40;5.32;;;1.50;;
17504;SDS011;8870;50.950;11.762;2023-03-26T10:52:23;5.18;;;1.50;;
17504;SDS011;8870;50.950;11.762;2023-03-26T10:58:03;4.95;;;1.48;;
17504;SDS011;8870;50.950;11.762;2023-03-26T11:03:36;4.85;;;1.60;;
17504;SDS011;8870;50.950;11.762;2023-03-26T11:09:22;5.45;;;1.30;;
17504;SDS011;8870;50.950;11.762;2023-03-26T11:14:49;2.75;;;1.20;;
17504;SDS011;8870;50.950;11.762;2023-03-26T11:20:26;4.45;;;1.35;;
17504;SDS011;8870;50.950;11.762;2023-03-26T11:26:02;5.40;;;1.33;;
17504;SDS011;8870;50.950;11.762;2023-03-26T11:31:54;4.00;;;1.30;;
17504;SDS011;8870;50.950;11.762;2023-03-26T11:37:22;4.72;;;1.20;;
17504;SDS011;8870;50.950;11.762;2023-03-26T11:43:02;3.20;;;1.55;;
17504;SDS011;8870;50.950;11.762;2023-03-26T11:48:27;3.53;;;1.05;;
17504;SDS011;8870;50.950;11.762;2023-03-26T11:54:03;3.15;;;1.00;;
17504;SDS011;8870;50.950;11.762;2023-03-26T11:59:40;3.60;;;1.13;;
17504;SDS011;8870;50.950;11.762;2023-03-26T12:05:16;3.22;;;1.20;;
17504;SDS011;8870;50.950;11.762;2023-03-26T12:10:58;6.07;;;1.40;;
17504;SDS011;8870;50.950;11.762;2023-03-26T12:16:19;6.15;;;1.60;;
17504;SDS011;8870;50.950;11.762;2023-03-26T12:21:54;5.65;;;1.75;;
17504;SDS011;8870;50.950;11.762;2023-03-26T12:27:20;4.50;;;1.42;;
17504;SDS011;8870;50.950;11.762;2023-03-26T12:32:55;4.55;;;1.48;;
17504;SDS011;8870;50.950;11.762;2023-03-26T12:38:29;5.75;;;1.50;;
17504;SDS011;8870;50.950;11.762;2023-03-26T12:44:25;5.45;;;1.60;;
17504;SDS011;8870;50.950;11.762;2023-03-26T12:50:04;5.43;;;1.45;;
17504;SDS011;8870;50.950;11.762;2023-03-26T12:55:53;5.85;;;1.50;;
17504;SDS011;8870;50.950;11.762;2023-03-26T13:01:20;4.85;;;1.40;;
17504;SDS011;8870;50.950;11.762;2023-03-26T13:07:00;3.17;;;1.10;;
17504;SDS011;8870;50.950;11.762;2023-03-26T13:12:32;4.22;;;1.30;;
17504;SDS011;8870;50.950;11.762;2023-03-26T13:18:12;5.32;;;1.30;;
17504;SDS011;8870;50.950;11.762;2023-03-26T13:23:42;2.53;;;0.85;;
17504;SDS011;8870;50.950;11.762;2023-03-26T13:29:24;2.08;;;0.90;;
17504;SDS011;8870;50.950;11.762;2023-03-26T13:34:57;4.25;;;1.20;;
17504;SDS011;8870;50.950;11.762;2023-03-26T13:40:43;3.05;;;1.00;;
17504;SDS011;8870;50.950;11.762;2023-03-26T13:46:14;1.85;;;0.80;;
17504;SDS011;8870;50.950;11.762;2023-03-26T13:51:55;2.42;;;0.80;;
17504;SDS011;8870;50.950;11.762;2023-03-26T13:57:31;1.42;;;0.65;;
17504;SDS011;8870;50.950;11.762;2023-03-26T14:02:55;1.75;;;0.70;;
17504;SDS011;8870;50.950;11.762;2023-03-26T14:08:33;1.35;;;0.60;;
17504;SDS011;8870;50.950;11.762;2023-03-26T14:13:56;2.10;;;0.70;;
17504;SDS011;8870;50.950;11.762;2023-03-26T14:19:44;1.13;;;0.50;;
17504;SDS011;8870;50.950;11.762;2023-03-26T14:25:24;1.38;;;0.47;;
17504;SDS011;8870;50.950;11.762;2023-03-26T14:31:08;0.38;;;0.30;;
17504;SDS011;8870;50.950;11.762;2023-03-26T14:36:52;1.03;;;0.50;;
17504;SDS011;8870;50.950;11.762;2023-03-26T14:42:45;0.75;;;0.47;;
17504;SDS011;8870;50.950;11.762;2023-03-26T14:54:39;0.40;;;0.30;;
17504;SDS011;8870;50.950;11.762;2023-03-26T15:06:22;0.80;;;0.60;;
17504;SDS011;8870;50.950;11.762;2023-03-26T15:12:17;1.10;;;0.80;;
17504;SDS011;8870;50.950;11.762;2023-03-26T15:18:02;1.08;;;0.80;;
17504;SDS011;8870;50.950;11.762;2023-03-26T15:41:20;1.67;;;0.40;;
17504;SDS011;8870;50.950;11.762;2023-03-26T15:47:14;0.83;;;0.50;;
17504;SDS011;8870;50.950;11.762;2023-03-26T15:58:23;1.48;;;0.40;;
17504;SDS011;8870;50.950;11.762;2023-03-26T16:03:52;0.70;;;0.30;;
17504;SDS011;8870;50.950;11.762;2023-03-26T16:09:44;0.40;;;0.40;;
17504;SDS011;8870;50.950;11.762;2023-03-26T16:15:25;0.68;;;0.43;;
17504;SDS011;8870;50.950;11.762;2023-03-26T16:21:08;1.00;;;0.50;;
17504;SDS011;8870;50.950;11.762;2023-03-26T16:27:04;0.80;;;0.60;;
17504;SDS011;8870;50.950;11.762;2023-03-26T16:32:53;1.25;;;0.60;;
17504;SDS011;8870;50.950;11.762;2023-03-26T16:38:17;0.57;;;0.40;;
17504;SDS011;8870;50.950;11.762;2023-03-26T16:44:01;0.45;;;0.35;;
17504;SDS011;8870;50.950;11.762;2023-03-26T16:49:35;1.08;;;0.50;;
17504;SDS011;8870;50.950;11.762;2023-03-26T16:55:27;0.85;;;0.70;;
17504;SDS011;8870;50.950;11.762;2023-03-26T17:01:15;0.93;;;0.80;;
17504;SDS011;8870;50.950;11.762;2023-03-26T17:06:48;2.47;;;1.00;;
17504;SDS011;8870;50.950;11.762;2023-03-26T17:12:31;0.80;;;0.70;;
17504;SDS011;8870;50.950;11.762;2023-03-26T17:18:01;1.17;;;0.80;;
17504;SDS011;8870;50.950;11.762;2023-03-26T17:23:53;1.30;;;0.88;;
17504;SDS011;8870;50.950;11.762;2023-03-26T17:29:48;1.08;;;0.80;;
17504;SDS011;8870;50.950;11.762;2023-03-26T17:35:35;3.20;;;1.00;;
17504;SDS011;8870;50.950;11.762;2023-03-26T17:40:57;1.48;;;1.00;;
17504;SDS011;8870;50.950;11.762;2023-03-26T17:46:34;1.08;;;0.85;;
17504;SDS011;8870;50.950;11.762;2023-03-26T17:52:03;1.20;;;1.10;;
17504;SDS011;8870;50.950;11.762;2023-03-26T17:57:46;1.52;;;0.90;;
17504;SDS011;8870;50.950;11.762;2023-03-26T18:03:12;2.13;;;1.00;;
17504;SDS011;8870;50.950;11.762;2023-03-26T18:08:53;1.00;;;0.90;;
17504;SDS011;8870;50.950;11.762;2023-03-26T18:14:44;1.63;;;0.98;;
17504;SDS011;8870;50.950;11.762;2023-03-26T18:20:22;1.73;;;1.02;;
17504;SDS011;8870;50.950;11.762;2023-03-26T18:25:57;2.28;;;1.10;;
17504;SDS011;8870;50.950;11.762;2023-03-26T18:31:29;3.00;;;2.50;;
17504;SDS011;8870;50.950;11.762;2023-03-26T18:42:42;2.15;;;1.60;;
17504;SDS011;8870;50.950;11.762;2023-03-26T18:48:17;2.60;;;1.67;;
17504;SDS011;8870;50.950;11.762;2023-03-26T18:53:41;2.35;;;1.50;;
17504;SDS011;8870;50.950;11.762;2023-03-26T18:59:22;2.40;;;1.60;;
17504;SDS011;8870;50.950;11.762;2023-03-26T19:04:49;4.57;;;1.38;;
17504;SDS011;8870;50.950;11.762;2023-03-26T19:10:23;1.85;;;1.30;;
17504;SDS011;8870;50.950;11.762;2023-03-26T19:15:42;1.40;;;1.20;;
17504;SDS011;8870;50.950;11.762;2023-03-26T19:21:15;2.60;;;1.50;;
17504;SDS011;8870;50.950;11.762;2023-03-26T19:26:39;3.33;;;1.65;;
17504;SDS011;8870;50.950;11.762;2023-03-26T19:32:15;3.25;;;1.80;;
17504;SDS011;8870;50.950;11.762;2023-03-26T19:37:47;2.80;;;1.70;;
17504;SDS011;8870;50.950;11.762;2023-03-26T19:43:22;1.50;;;1.38;;
17504;SDS011;8870;50.950;11.762;2023-03-26T19:48:41;2.33;;;1.42;;
17504;SDS011;8870;50.950;11.762;2023-03-26T19:54:15;1.95;;;1.85;;
17504;SDS011;8870;50.950;11.762;2023-03-26T19:59:49;1.87;;;1.77;;
17504;SDS011;8870;50.950;11.762;2023-03-26T20:05:10;2.42;;;2.10;;
17504;SDS011;8870;50.950;11.762;2023-03-26T20:10:49;2.55;;;2.30;;
17504;SDS011;8870;50.950;11.762;2023-03-26T20:16:11;3.30;;;3.00;;
17504;SDS011;8870;50.950;11.762;2023-03-26T20:21:47;3.00;;;2.70;;
17504;SDS011;8870;50.950;11.762;2023-03-26T20:27:07;5.30;;;3.40;;
17504;SDS011;8870;50.950;11.762;2023-03-26T20:32:42;3.05;;;2.47;;
17504;SDS011;8870;50.950;11.762;2023-03-26T20:38:21;1.88;;;1.63;;
17504;SDS011;8870;50.950;11.762;2023-03-26T20:43:53;1.40;;;1.30;;
17504;SDS011;8870;50.950;11.762;2023-03-26T20:49:14;1.63;;;1.10;;
17504;SDS011;8870;50.950;11.762;2023-03-26T20:54:46;2.63;;;1.10;;
17504;SDS011;8870;50.950;11.762;2023-03-26T21:00:20;3.83;;;3.40;;
17504;SDS011;8870;50.950;11.762;2023-03-26T21:05:41;3.95;;;3.53;;
17504;SDS011;8870;50.950;11.762;2023-03-26T21:11:15;2.88;;;2.63;;
17504;SDS011;8870;50.950;11.762;2023-03-26T21:16:37;1.53;;;1.43;;
17504;SDS011;8870;50.950;11.762;2023-03-26T21:22:14;2.67;;;1.25;;
17504;SDS011;8870;50.950;11.762;2023-03-26T21:27:45;2.17;;;1.67;;
17504;SDS011;8870;50.950;11.762;2023-03-26T21:33:23;2.40;;;1.92;;
17504;SDS011;8870;50.950;11.762;2023-03-26T21:38:44;1.70;;;1.60;;
17504;SDS011;8870;50.950;11.762;2023-03-26T21:44:18;1.92;;;1.70;;
17504;SDS011;8870;50.950;11.762;2023-03-26T21:49:37;2.05;;;1.52;;
17504;SDS011;8870;50.950;11.762;2023-03-26T21:55:12;2.38;;;1.85;;
17504;SDS011;8870;50.950;11.762;2023-03-26T22:00:49;2.53;;;2.33;;
17504;SDS011;8870;50.950;11.762;2023-03-26T22:06:19;2.35;;;2.15;;
17504;SDS011;8870;50.950;11.762;2023-03-26T22:12:01;2.28;;;1.73;;
17504;SDS011;8870;50.950;11.762;2023-03-26T22:17:19;2.60;;;2.20;;
17504;SDS011;8870;50.950;11.762;2023-03-26T22:22:50;3.83;;;2.20;;
17504;SDS011;8870;50.950;11.762;2023-03-26T22:28:12;3.88;;;2.10;;
17504;SDS011;8870;50.950;11.762;2023-03-26T22:33:43;4.35;;;2.20;;
17504;SDS011;8870;50.950;11.762;2023-03-26T22:39:02;4.53;;;2.60;;
17504;SDS011;8870;50.950;11.762;2023-03-26T22:44:37;4.88;;;2.50;;
17504;SDS011;8870;50.950;11.762;2023-03-26T22:49:56;6.22;;;2.30;;
17504;SDS011;8870;50.950;11.762;2023-03-26T22:55:27;5.95;;;2.00;;
17504;SDS011;8870;50.950;11.762;2023-03-26T23:01:04;7.97;;;2.30;;
17504;SDS011;8870;50.950;11.762;2023-03-26T23:06:24;5.72;;;2.70;;
17504;SDS011;8870;50.950;11.762;2023-03-26T23:11:56;6.25;;;2.47;;
17504;SDS011;8870;50.950;11.762;2023-03-26T23:17:17;10.43;;;3.25;;
17504;SDS011;8870;50.950;11.762;2023-03-26T23:22:49;8.32;;;2.47;;
17504;SDS011;8870;50.950;11.762;2023-03-26T23:28:08;7.38;;;2.40;;
17504;SDS011;8870;50.950;11.762;2023-03-26T23:33:41;8.48;;;2.67;;
17504;SDS011;8870;50.950;11.762;2023-03-26T23:39:04;7.38;;;2.60;;
17504;SDS011;8870;50.950;11.762;2023-03-26T23:44:34;7.28;;;2.40;;
17504;SDS011;8870;50.950;11.762;2023-03-26T23:49:55;7.20;;;2.55;;
17504;SDS011;8870;50.950;11.762;2023-03-26T23:55:26;11.07;;;2.90;;
